createdAt,value
2018-03-22T00:02:15.381Z,2.30
2018-03-22T00:04:41.701Z,2.30
2018-03-22T00:07:08.041Z,2.60
2018-03-22T00:09:34.457Z,2.40
2018-03-22T00:12:00.870Z,2.70
2018-03-22T00:14:27.987Z,2.40
2018-03-22T00:16:54.330Z,2.40
2018-03-22T00:19:20.717Z,2.50
2018-03-22T00:21:47.076Z,2.50
2018-03-22T00:24:14.189Z,2.50
2018-03-22T00:26:40.549Z,2.50
2018-03-22T00:29:06.932Z,2.60
2018-03-22T00:31:38.277Z,2.70
2018-03-22T00:34:04.896Z,2.60
2018-03-22T00:36:31.264Z,2.60
2018-03-22T00:38:57.624Z,2.70
2018-03-22T00:41:23.995Z,2.70
2018-03-22T00:43:50.403Z,2.80
2018-03-22T00:46:16.808Z,2.80
2018-03-22T00:48:43.195Z,2.80
2018-03-22T00:51:10.300Z,2.90
2018-03-22T00:53:36.672Z,2.90
2018-03-22T00:56:03.053Z,3.00
2018-03-22T00:58:30.123Z,3.10
2018-03-22T01:00:56.512Z,3.00
2018-03-22T01:03:22.869Z,3.10
2018-03-22T01:05:49.232Z,3.10
2018-03-22T01:08:21.601Z,3.20
2018-03-22T01:10:47.961Z,3.20
2018-03-22T01:13:15.081Z,3.20
2018-03-22T01:15:41.480Z,3.20
2018-03-22T01:18:08.615Z,3.20
2018-03-22T01:20:35.742Z,3.20
2018-03-22T01:23:02.086Z,3.20
2018-03-22T01:25:28.440Z,3.20
2018-03-22T01:27:54.811Z,3.20
2018-03-22T01:30:33.518Z,3.20
2018-03-22T01:32:59.897Z,3.20
2018-03-22T01:35:26.333Z,3.00
2018-03-22T01:37:52.677Z,3.10
2018-03-22T01:40:19.056Z,3.20
2018-03-22T01:42:45.409Z,3.20
2018-03-22T01:45:11.805Z,3.20
2018-03-22T01:47:38.157Z,3.20
2018-03-22T01:50:04.901Z,3.20
2018-03-22T01:52:31.265Z,3.20
2018-03-22T01:54:58.344Z,3.30
2018-03-22T01:57:24.739Z,3.20
2018-03-22T01:59:51.125Z,3.30
2018-03-22T02:02:17.477Z,3.30
2018-03-22T02:04:43.836Z,3.30
2018-03-22T02:07:10.963Z,3.20
2018-03-22T02:09:37.473Z,3.20
2018-03-22T02:12:04.993Z,3.30
2018-03-22T02:14:31.394Z,3.20
2018-03-22T02:16:57.776Z,3.30
2018-03-22T02:19:24.136Z,3.30
2018-03-22T02:21:50.490Z,3.30
2018-03-22T02:24:16.864Z,3.40
2018-03-22T02:26:44.016Z,3.30
2018-03-22T02:29:10.365Z,3.20
2018-03-22T02:31:37.516Z,3.30
2018-03-22T02:34:04.454Z,3.20
2018-03-22T02:36:30.843Z,3.20
2018-03-22T02:38:57.200Z,3.30
2018-03-22T02:41:23.557Z,3.20
2018-03-22T02:43:49.920Z,3.30
2018-03-22T02:46:16.317Z,3.20
2018-03-22T02:48:42.638Z,3.20
2018-03-22T02:51:09.811Z,3.20
2018-03-22T02:53:36.929Z,3.20
2018-03-22T02:56:03.379Z,3.20
2018-03-22T02:58:30.524Z,3.20
2018-03-22T03:00:56.896Z,3.20
2018-03-22T03:03:24.074Z,3.20
2018-03-22T03:05:50.432Z,3.20
2018-03-22T03:08:16.784Z,3.20
2018-03-22T03:10:43.853Z,3.20
2018-03-22T03:13:10.919Z,3.20
2018-03-22T03:15:37.276Z,3.10
2018-03-22T03:18:03.946Z,3.20
2018-03-22T03:20:30.337Z,3.50
2018-03-22T03:22:57.439Z,3.20
2018-03-22T03:25:23.763Z,3.20
2018-03-22T03:27:50.880Z,3.30
2018-03-22T03:30:18.075Z,3.20
2018-03-22T03:32:44.387Z,3.20
2018-03-22T03:35:10.716Z,3.20
2018-03-22T03:37:37.125Z,3.30
2018-03-22T03:40:04.121Z,3.30
2018-03-22T03:42:30.486Z,3.30
2018-03-22T03:44:57.567Z,3.20
2018-03-22T03:47:24.632Z,3.20
2018-03-22T03:49:51.019Z,3.20
2018-03-22T03:52:18.152Z,3.20
2018-03-22T03:54:44.517Z,3.20
2018-03-22T03:57:10.890Z,3.20
2018-03-22T03:59:38.058Z,3.10
2018-03-22T04:02:05.272Z,3.10
2018-03-22T04:04:31.660Z,3.10
2018-03-22T04:06:58.016Z,3.20
2018-03-22T04:09:24.456Z,3.20
2018-03-22T04:11:50.791Z,3.20
2018-03-22T04:14:17.202Z,3.20
2018-03-22T04:16:43.548Z,3.20
2018-03-22T04:19:09.904Z,3.20
2018-03-22T04:21:37.009Z,3.20
2018-03-22T04:24:04.415Z,3.20
2018-03-22T04:26:30.837Z,3.20
2018-03-22T04:28:57.252Z,3.30
2018-03-22T04:31:24.346Z,3.30
2018-03-22T04:33:50.761Z,3.30
2018-03-22T04:36:17.148Z,3.30
2018-03-22T04:38:43.561Z,3.40
2018-03-22T04:41:09.974Z,3.30
2018-03-22T04:43:37.086Z,3.40
2018-03-22T04:46:03.853Z,3.30
2018-03-22T04:48:30.361Z,3.40
2018-03-22T04:50:56.807Z,3.30
2018-03-22T04:53:23.902Z,3.30
2018-03-22T04:55:51.076Z,3.40
2018-03-22T04:58:17.456Z,3.30
2018-03-22T05:00:43.873Z,3.30
2018-03-22T05:03:10.228Z,3.20
2018-03-22T05:05:37.397Z,3.30
2018-03-22T05:08:04.190Z,3.30
2018-03-22T05:10:30.622Z,3.30
2018-03-22T05:12:57.066Z,3.30
2018-03-22T05:15:23.558Z,3.30
2018-03-22T05:17:49.989Z,3.40
2018-03-22T05:20:16.437Z,3.30
2018-03-22T05:22:43.627Z,3.10
2018-03-22T05:25:11.002Z,3.00
2018-03-22T05:27:37.422Z,3.10
2018-03-22T05:30:04.359Z,3.00
2018-03-22T05:32:30.725Z,3.00
2018-03-22T05:34:57.541Z,3.00
2018-03-22T05:37:23.960Z,2.50
2018-03-22T05:39:50.439Z,2.60
2018-03-22T05:42:17.034Z,2.90
2018-03-22T05:44:43.480Z,2.90
2018-03-22T05:47:10.741Z,2.90
2018-03-22T05:49:37.361Z,2.80
2018-03-22T05:52:04.611Z,2.80
2018-03-22T05:54:31.067Z,2.80
2018-03-22T05:56:57.609Z,2.70
2018-03-22T05:59:24.023Z,2.70
2018-03-22T06:01:50.488Z,2.80
2018-03-22T06:04:16.908Z,2.80
2018-03-22T06:06:44.098Z,2.60
2018-03-22T06:09:10.526Z,2.20
2018-03-22T06:11:36.928Z,2.60
2018-03-22T06:14:03.480Z,2.60
2018-03-22T06:16:29.887Z,2.60
2018-03-22T06:18:57.068Z,2.50
2018-03-22T06:21:23.497Z,2.50
2018-03-22T06:23:50.643Z,2.40
2018-03-22T06:26:17.889Z,2.40
2018-03-22T06:28:44.308Z,2.40
2018-03-22T06:31:11.459Z,2.40
2018-03-22T06:33:37.844Z,2.40
2018-03-22T06:36:04.279Z,2.40
2018-03-22T06:38:30.653Z,2.40
2018-03-22T06:40:57.058Z,2.40
2018-03-22T06:43:23.494Z,2.50
2018-03-22T06:45:50.632Z,2.40
2018-03-22T06:48:17.130Z,2.40
2018-03-22T06:50:43.483Z,2.40
2018-03-22T06:53:09.893Z,2.40
2018-03-22T06:55:37.532Z,2.40
2018-03-22T06:58:05.196Z,2.50
2018-03-22T07:00:31.550Z,2.40
2018-03-22T07:02:58.003Z,2.40
2018-03-22T07:05:24.407Z,2.40
2018-03-22T07:07:50.800Z,2.40
2018-03-22T07:10:18.457Z,2.50
2018-03-22T07:12:44.862Z,2.50
2018-03-22T07:15:11.269Z,2.50
2018-03-22T07:17:37.696Z,2.50
2018-03-22T07:20:05.644Z,2.50
2018-03-22T07:22:33.077Z,2.50
2018-03-22T07:24:59.555Z,2.30
2018-03-22T07:27:25.900Z,2.50
2018-03-22T07:29:52.302Z,2.50
2018-03-22T07:32:19.473Z,2.50
2018-03-22T07:34:46.674Z,2.50
2018-03-22T07:37:13.111Z,2.50
2018-03-22T07:39:39.508Z,2.60
2018-03-22T07:42:06.805Z,2.60
2018-03-22T07:44:39.387Z,2.60
2018-03-22T07:47:05.783Z,2.70
2018-03-22T07:49:32.286Z,2.70
2018-03-22T07:51:58.681Z,2.70
2018-03-22T07:54:25.064Z,2.80
2018-03-22T07:56:51.474Z,2.90
2018-03-22T07:59:17.899Z,2.90
2018-03-22T08:01:44.329Z,2.90
2018-03-22T08:04:10.777Z,3.00
2018-03-22T08:06:37.227Z,3.00
2018-03-22T08:09:04.440Z,3.00
2018-03-22T08:11:30.841Z,3.00
2018-03-22T08:13:58.304Z,3.00
2018-03-22T08:16:24.768Z,3.00
2018-03-22T08:18:51.525Z,3.00
2018-03-22T08:21:18.707Z,3.00
2018-03-22T08:23:45.088Z,2.90
2018-03-22T08:26:11.545Z,3.00
2018-03-22T08:28:38.048Z,2.90
2018-03-22T08:31:05.820Z,3.00
2018-03-22T08:33:32.966Z,3.00
2018-03-22T08:35:59.370Z,3.00
2018-03-22T08:38:25.818Z,2.90
2018-03-22T08:40:52.224Z,3.10
2018-03-22T08:43:19.390Z,3.00
2018-03-22T08:45:46.545Z,3.20
2018-03-22T08:48:13.754Z,3.20
2018-03-22T08:50:40.261Z,3.20
2018-03-22T08:53:06.644Z,3.30
2018-03-22T08:55:33.064Z,3.20
2018-03-22T08:57:59.509Z,3.30
2018-03-22T09:00:26.663Z,3.30
2018-03-22T09:02:54.540Z,3.30
2018-03-22T09:05:20.938Z,3.30
2018-03-22T09:07:47.282Z,3.40
2018-03-22T09:10:14.512Z,3.40
2018-03-22T09:12:40.920Z,3.40
2018-03-22T09:15:08.048Z,3.60
2018-03-22T09:17:34.436Z,3.60
2018-03-22T09:20:01.552Z,3.60
2018-03-22T09:22:27.900Z,3.60
2018-03-22T09:24:54.276Z,3.60
2018-03-22T09:27:20.674Z,3.70
2018-03-22T09:29:47.151Z,3.50
2018-03-22T09:32:14.276Z,3.80
2018-03-22T09:34:41.629Z,3.80
2018-03-22T09:37:08.826Z,3.80
2018-03-22T09:39:35.229Z,3.80
2018-03-22T09:42:01.657Z,3.90
2018-03-22T09:44:28.088Z,4.00
2018-03-22T09:46:54.489Z,4.00
2018-03-22T09:49:20.918Z,4.10
2018-03-22T09:51:47.496Z,4.10
2018-03-22T09:54:13.923Z,4.20
2018-03-22T09:56:40.444Z,4.40
2018-03-22T09:59:06.832Z,4.40
2018-03-22T10:01:33.260Z,4.40
2018-03-22T10:04:00.453Z,4.40
2018-03-22T10:06:26.858Z,4.40
2018-03-22T10:08:54.042Z,4.60
2018-03-22T10:11:20.428Z,4.50
2018-03-22T10:13:46.873Z,4.50
2018-03-22T10:16:13.409Z,4.60
2018-03-22T10:18:39.829Z,4.70
2018-03-22T10:21:07.019Z,4.80
2018-03-22T10:23:34.194Z,4.90
2018-03-22T10:26:01.349Z,4.90
2018-03-22T10:28:27.799Z,5.60
2018-03-22T10:30:54.184Z,5.00
2018-03-22T10:33:20.626Z,5.00
2018-03-22T10:35:47.721Z,4.90
2018-03-22T10:38:14.853Z,4.90
2018-03-22T10:40:41.752Z,4.60
2018-03-22T10:43:08.166Z,4.90
2018-03-22T10:45:34.614Z,5.00
2018-03-22T10:48:01.041Z,5.10
2018-03-22T10:50:27.488Z,5.10
2018-03-22T10:52:53.909Z,5.10
2018-03-22T10:55:20.361Z,5.10
2018-03-22T10:57:46.969Z,5.20
2018-03-22T11:00:20.359Z,5.40
2018-03-22T11:02:52.899Z,5.40
2018-03-22T11:05:19.311Z,5.30
2018-03-22T11:07:46.408Z,5.20
2018-03-22T11:10:12.859Z,5.20
2018-03-22T11:12:39.340Z,5.20
2018-03-22T11:15:05.744Z,5.30
2018-03-22T11:17:32.136Z,5.40
2018-03-22T11:19:59.299Z,5.40
2018-03-22T11:22:25.702Z,5.40
2018-03-22T11:24:52.267Z,5.40
2018-03-22T11:27:19.481Z,5.50
2018-03-22T11:29:45.877Z,5.50
2018-03-22T11:32:12.237Z,5.60
2018-03-22T11:34:38.660Z,5.70
2018-03-22T11:37:05.048Z,5.70
2018-03-22T11:39:31.551Z,5.80
2018-03-22T11:41:57.910Z,5.70
2018-03-22T11:44:24.285Z,5.60
2018-03-22T11:46:50.686Z,5.70
2018-03-22T11:49:17.066Z,5.80
2018-03-22T11:51:43.506Z,5.80
2018-03-22T11:54:09.909Z,5.80
2018-03-22T11:56:37.227Z,5.70
2018-03-22T11:59:03.646Z,5.70
2018-03-22T12:01:30.090Z,5.70
2018-03-22T12:03:56.730Z,5.80
2018-03-22T12:06:23.929Z,6.00
2018-03-22T12:08:50.318Z,6.00
2018-03-22T12:11:17.511Z,6.50
2018-03-22T12:13:43.927Z,6.00
2018-03-22T12:16:10.336Z,6.10
2018-03-22T12:18:36.712Z,6.10
2018-03-22T12:21:03.177Z,6.10
2018-03-22T12:23:29.535Z,6.10
2018-03-22T12:25:56.732Z,6.10
2018-03-22T12:28:23.106Z,6.00
2018-03-22T12:30:50.260Z,6.10
2018-03-22T12:33:16.665Z,6.10
2018-03-22T12:35:43.084Z,6.20
2018-03-22T12:38:10.226Z,6.10
2018-03-22T12:40:36.609Z,6.10
2018-03-22T12:43:02.981Z,6.20
2018-03-22T12:45:29.348Z,6.20
2018-03-22T12:47:55.768Z,6.20
2018-03-22T12:50:22.137Z,6.30
2018-03-22T12:52:48.541Z,6.30
2018-03-22T12:55:15.040Z,6.40
2018-03-22T12:57:41.397Z,6.50
2018-03-22T13:00:07.800Z,6.60
2018-03-22T13:02:34.981Z,6.90
2018-03-22T13:05:01.353Z,6.90
2018-03-22T13:07:27.817Z,7.00
2018-03-22T13:09:55.692Z,7.40
2018-03-22T13:12:22.079Z,7.50
2018-03-22T13:14:49.222Z,8.10
2018-03-22T13:17:16.478Z,8.20
2018-03-22T13:19:42.842Z,8.20
2018-03-22T13:22:09.264Z,8.30
2018-03-22T13:24:35.678Z,9.00
2018-03-22T13:27:02.147Z,9.60
2018-03-22T13:29:28.541Z,10.00
2018-03-22T13:31:54.972Z,10.00
2018-03-22T13:34:21.348Z,9.70
2018-03-22T13:36:47.734Z,9.50
2018-03-22T13:39:14.212Z,9.10
2018-03-22T13:41:40.658Z,8.80
2018-03-22T13:44:07.062Z,8.50
2018-03-22T13:46:33.465Z,8.20
2018-03-22T13:48:59.868Z,8.00
2018-03-22T13:51:26.292Z,7.80
2018-03-22T13:53:53.429Z,7.60
2018-03-22T13:56:21.261Z,7.50
2018-03-22T13:58:47.653Z,7.30
2018-03-22T14:01:14.024Z,7.60
2018-03-22T14:03:41.144Z,7.50
2018-03-22T14:06:08.285Z,7.40
2018-03-22T14:08:34.873Z,7.40
2018-03-22T14:11:01.338Z,7.40
2018-03-22T14:13:28.521Z,7.30
2018-03-22T14:15:54.871Z,7.20
2018-03-22T14:18:21.363Z,7.30
2018-03-22T14:20:47.737Z,7.20
2018-03-22T14:23:14.069Z,6.80
2018-03-22T14:25:41.218Z,7.00
2018-03-22T14:28:07.608Z,7.00
2018-03-22T14:30:33.980Z,7.00
2018-03-22T14:33:00.417Z,6.90
2018-03-22T14:35:26.825Z,6.90
2018-03-22T14:37:53.226Z,6.90
2018-03-22T14:40:19.643Z,6.80
2018-03-22T14:42:47.495Z,6.90
2018-03-22T14:45:13.922Z,6.90
2018-03-22T14:47:40.416Z,7.00
2018-03-22T14:50:07.198Z,7.10
2018-03-22T14:52:33.613Z,7.20
2018-03-22T14:55:00.021Z,7.40
2018-03-22T14:57:26.381Z,7.60
2018-03-22T14:59:52.803Z,7.70
2018-03-22T15:02:19.188Z,7.90
2018-03-22T15:04:45.606Z,8.10
2018-03-22T15:07:12.029Z,8.30
2018-03-22T15:09:39.183Z,8.60
2018-03-22T15:12:05.634Z,8.60
2018-03-22T15:14:32.412Z,8.80
2018-03-22T15:17:00.437Z,8.90
2018-03-22T15:19:26.896Z,8.80
2018-03-22T15:21:53.352Z,8.80
2018-03-22T15:24:19.707Z,8.80
2018-03-22T15:26:46.871Z,8.80
2018-03-22T15:29:13.994Z,8.70
2018-03-22T15:31:40.424Z,8.70
2018-03-22T15:34:06.821Z,8.70
2018-03-22T15:36:33.965Z,8.60
2018-03-22T15:39:00.366Z,8.60
2018-03-22T15:41:26.792Z,8.50
2018-03-22T15:43:53.937Z,8.20
2018-03-22T15:46:21.103Z,8.20
2018-03-22T15:48:47.489Z,8.10
2018-03-22T15:51:14.444Z,8.20
2018-03-22T15:53:40.824Z,8.10
2018-03-22T15:56:07.187Z,8.00
2018-03-22T15:58:33.545Z,8.00
2018-03-22T16:00:59.945Z,7.90
2018-03-22T16:03:26.382Z,7.90
2018-03-22T16:05:52.912Z,7.80
2018-03-22T16:08:19.297Z,7.80
2018-03-22T16:10:45.737Z,7.80
2018-03-22T16:13:12.113Z,7.70
2018-03-22T16:15:38.498Z,7.70
2018-03-22T16:18:04.972Z,7.70
2018-03-22T16:20:31.365Z,7.60
2018-03-22T16:22:57.795Z,7.60
2018-03-22T16:25:24.222Z,7.50
2018-03-22T16:27:51.400Z,7.40
2018-03-22T16:30:17.817Z,7.40
2018-03-22T16:32:45.710Z,7.40
2018-03-22T16:35:12.850Z,7.40
2018-03-22T16:37:40.720Z,7.40
2018-03-22T16:40:07.328Z,7.50
2018-03-22T16:42:34.380Z,7.40
2018-03-22T16:45:00.731Z,7.40
2018-03-22T16:47:27.141Z,7.40
2018-03-22T16:49:53.525Z,7.30
2018-03-22T16:52:19.941Z,7.30
2018-03-22T16:54:46.344Z,7.30
2018-03-22T16:57:12.806Z,7.20
2018-03-22T16:59:39.213Z,7.20
2018-03-22T17:02:06.339Z,7.10
2018-03-22T17:04:33.530Z,7.10
2018-03-22T17:07:00.691Z,7.10
2018-03-22T17:09:27.896Z,7.10
2018-03-22T17:11:54.259Z,7.10
2018-03-22T17:14:20.698Z,7.00
2018-03-22T17:16:47.189Z,7.00
2018-03-22T17:19:15.559Z,6.90
2018-03-22T17:21:42.213Z,6.90
2018-03-22T17:24:09.703Z,6.90
2018-03-22T17:26:36.138Z,6.80
2018-03-22T17:29:03.388Z,6.80
2018-03-22T17:31:29.853Z,6.80
2018-03-22T17:33:56.267Z,6.80
2018-03-22T17:36:23.430Z,6.80
2018-03-22T17:38:50.330Z,6.70
2018-03-22T17:41:16.725Z,6.70
2018-03-22T17:43:43.893Z,6.70
2018-03-22T17:46:11.029Z,6.70
2018-03-22T17:48:39.073Z,6.70
2018-03-22T17:51:05.560Z,6.60
2018-03-22T17:53:32.001Z,6.70
2018-03-22T17:55:58.435Z,6.70
2018-03-22T17:58:25.600Z,6.70
2018-03-22T18:00:52.009Z,6.60
2018-03-22T18:03:18.416Z,6.60
2018-03-22T18:05:45.569Z,6.60
2018-03-22T18:08:12.765Z,6.60
2018-03-22T18:10:39.142Z,6.60
2018-03-22T18:13:05.512Z,6.60
2018-03-22T18:15:32.628Z,6.50
2018-03-22T18:17:58.992Z,6.50
2018-03-22T18:20:25.423Z,6.50
2018-03-22T18:22:51.835Z,6.50
2018-03-22T18:25:18.261Z,6.30
2018-03-22T18:27:44.658Z,6.50
2018-03-22T18:30:11.073Z,6.40
2018-03-22T18:32:37.481Z,5.70
2018-03-22T18:35:04.762Z,6.50
2018-03-22T18:37:31.165Z,6.50
2018-03-22T18:39:57.559Z,6.40
2018-03-22T18:42:24.684Z,6.40
2018-03-22T18:44:51.060Z,6.40
2018-03-22T18:47:17.408Z,6.40
2018-03-22T18:49:43.793Z,6.40
2018-03-22T18:52:10.155Z,5.50
2018-03-22T18:54:36.558Z,6.40
2018-03-22T18:57:02.961Z,6.30
2018-03-22T18:59:30.802Z,6.30
2018-03-22T19:01:57.213Z,6.20
2018-03-22T19:04:24.302Z,6.20
2018-03-22T19:06:50.667Z,6.20
2018-03-22T19:09:17.065Z,6.10
2018-03-22T19:11:43.453Z,6.20
2018-03-22T19:14:09.845Z,6.20
2018-03-22T19:16:36.205Z,6.20
2018-03-22T19:19:02.580Z,6.20
2018-03-22T19:21:29.008Z,6.20
2018-03-22T19:23:55.368Z,6.20
2018-03-22T19:26:21.807Z,6.20
2018-03-22T19:28:49.675Z,6.10
2018-03-22T19:31:16.058Z,6.10
2018-03-22T19:33:43.932Z,6.10
2018-03-22T19:36:10.277Z,6.10
2018-03-22T19:38:37.389Z,6.10
2018-03-22T19:41:03.865Z,6.00
2018-03-22T19:43:30.228Z,6.10
2018-03-22T19:45:58.105Z,6.00
2018-03-22T19:48:25.299Z,6.00
2018-03-22T19:50:51.693Z,6.00
2018-03-22T19:53:18.060Z,6.00
2018-03-22T19:55:44.402Z,6.00
2018-03-22T19:58:10.794Z,6.00
2018-03-22T20:00:37.147Z,6.00
2018-03-22T20:03:03.521Z,6.00
2018-03-22T20:05:29.944Z,6.00
2018-03-22T20:07:56.316Z,5.90
2018-03-22T20:10:22.722Z,5.90
2018-03-22T20:12:49.123Z,5.90
2018-03-22T20:15:15.457Z,5.80
2018-03-22T20:17:43.319Z,5.80
2018-03-22T20:20:09.700Z,5.80
2018-03-22T20:22:36.173Z,5.80
2018-03-22T20:25:02.655Z,5.80
2018-03-22T20:27:29.104Z,5.80
2018-03-22T20:29:55.466Z,5.80
2018-03-22T20:32:21.816Z,5.80
2018-03-22T20:34:48.259Z,5.80
2018-03-22T20:37:14.693Z,5.80
2018-03-22T20:39:41.006Z,5.80
2018-03-22T20:42:07.537Z,5.80
2018-03-22T20:44:33.893Z,5.80
2018-03-22T20:47:00.278Z,5.80
2018-03-22T20:49:26.714Z,5.80
2018-03-22T20:51:53.076Z,5.80
2018-03-22T20:54:20.341Z,5.80
2018-03-22T20:56:46.699Z,5.80
2018-03-22T20:59:13.085Z,5.80
2018-03-22T21:01:39.452Z,5.80
2018-03-22T21:04:06.086Z,5.80
2018-03-22T21:06:32.480Z,5.80
2018-03-22T21:08:59.601Z,5.80
2018-03-22T21:11:25.941Z,5.80
2018-03-22T21:13:53.056Z,5.70
2018-03-22T21:16:19.420Z,5.70
2018-03-22T21:18:45.832Z,5.80
2018-03-22T21:21:12.208Z,5.70
2018-03-22T21:23:38.621Z,5.70
2018-03-22T21:26:05.095Z,5.80
2018-03-22T21:28:31.518Z,5.80
2018-03-22T21:30:57.889Z,5.70
2018-03-22T21:33:24.264Z,5.70
2018-03-22T21:35:51.001Z,5.70
2018-03-22T21:38:17.326Z,5.70
2018-03-22T21:40:43.677Z,5.70
2018-03-22T21:43:10.044Z,5.80
2018-03-22T21:45:37.187Z,5.80
2018-03-22T21:48:04.139Z,5.80
2018-03-22T21:50:42.726Z,5.80
2018-03-22T21:53:09.793Z,5.70
2018-03-22T21:55:36.197Z,5.70
2018-03-22T21:58:04.111Z,5.70
2018-03-22T22:00:30.509Z,5.40
2018-03-22T22:02:56.885Z,5.70
2018-03-22T22:05:23.265Z,5.70
2018-03-22T22:07:49.596Z,5.70
2018-03-22T22:10:15.948Z,5.60
2018-03-22T22:12:43.141Z,5.60
2018-03-22T22:15:09.555Z,5.60
2018-03-22T22:17:36.964Z,5.60
2018-03-22T22:20:05.215Z,5.60
2018-03-22T22:22:31.557Z,5.60
2018-03-22T22:24:57.939Z,5.60
2018-03-22T22:27:24.376Z,5.60
2018-03-22T22:29:51.543Z,5.50
2018-03-22T22:32:19.408Z,5.50
2018-03-22T22:34:45.824Z,5.50
2018-03-22T22:37:12.163Z,5.50
2018-03-22T22:39:39.256Z,5.50
2018-03-22T22:42:05.673Z,5.50
2018-03-22T22:44:32.062Z,5.50
2018-03-22T22:46:58.451Z,5.50
2018-03-22T22:49:25.560Z,5.50
2018-03-22T22:51:51.909Z,5.50
2018-03-22T22:54:18.240Z,5.50
2018-03-22T22:56:44.620Z,5.50
2018-03-22T22:59:10.941Z,5.50
2018-03-22T23:01:38.109Z,5.50
2018-03-22T23:04:05.135Z,5.50
2018-03-22T23:06:31.495Z,5.50
2018-03-22T23:08:57.915Z,5.50
2018-03-22T23:11:24.370Z,5.20
2018-03-22T23:13:50.720Z,5.50
2018-03-22T23:16:17.084Z,5.50
2018-03-22T23:18:43.441Z,5.50
2018-03-22T23:21:09.784Z,5.50
2018-03-22T23:23:36.872Z,5.50
2018-03-22T23:26:03.543Z,5.40
2018-03-22T23:28:29.908Z,5.50
2018-03-22T23:30:57.028Z,5.50
2018-03-22T23:33:23.365Z,5.40
2018-03-22T23:35:49.768Z,5.50
2018-03-22T23:38:16.876Z,5.50
2018-03-22T23:40:43.936Z,5.50
2018-03-22T23:43:10.298Z,5.50
2018-03-22T23:45:36.619Z,5.50
2018-03-22T23:48:04.300Z,5.50
2018-03-22T23:50:31.372Z,5.50
2018-03-22T23:52:57.700Z,5.50
2018-03-22T23:55:24.021Z,5.50
2018-03-22T23:57:51.161Z,5.50
